DSTT2: Red River at Denison Dam nr Denison, TX

                                SHEF ID:       DSTT2     Red River at Denison Dam nr Deni
STATION TYPE:

PRECIP STAGE RIV-FLOW BAT-LOAD
in ft cfs volt
Ccp-Rev Ccp-Rev Ccp-Rev Ccp-Rev
(America/Chicago)
04/27 00:00 0.00 7.65 5020 12.69
04/27 01:00 0.00 6.33 1885 12.67
04/27 02:00 0.00 5.67 899 12.67
04/27 03:00 0.00 5.25 464 12.65
04/27 04:00 0.00 4.95 255 12.65
04/27 05:00 0.00 4.73 143 12.63
04/27 06:00 0.00 4.55 112 12.63
04/27 07:00 0.00 4.42 101 12.61
04/27 08:00 0.00 4.31 91 12.60
04/27 09:00 0.00 4.21 83 12.65
04/27 10:00 0.00 4.12 75 13.32
04/27 11:00 0.00 4.05 69 13.79
04/27 12:00 0.00 4.00 64 13.82
04/27 13:00 0.00 3.95 60 13.82
04/27 14:00 0.00 3.91 56 13.79
04/27 15:00 0.00 3.87 52 13.76
04/27 16:00 0.00 3.84 49 13.42
04/27 17:00 0.00 6.32 1867 13.30
04/27 18:00 0.00 7.01 3293 13.21
04/27 19:00 0.00 7.45 4439 13.17
04/27 20:00 0.00 7.69 5138 13.10
04/27 21:00 0.00 7.82 5533 12.86
04/27 22:00 0.00 7.88 5721 12.76
04/27 23:00 0.00 7.94 5913 12.71
Data processed at Tue 28Apr2026 04:11 GMT

NOTICE: If you are parsing this page

Please convert to using our Data API. Starting early 2026 we will be migrating to: https://water.usace.army.mil with modern pages rendered in JavaScript. When this migration completes you will no longer be able to scrape this page! CWMSDataAPI (CDA)

Timeseries IDs (TSIDs)

TSIDs used from left to right in the data table
DEN2.Precip-Inc.Total.1Hour.1Hour.Ccp-Rev
DEN2.Stage.Inst.1Hour.0.Ccp-Rev
DEN2.Flow.Inst.1Hour.0.Ccp-Rev
DEN2.Volt-Battery Load.Inst.1Hour.0.Ccp-Rev

                            

All information presented herein is the property of the government of the United States of America and may be revised or deleted at any time without prior notice. Dissemination of this information without the expressed written consent of the Public Affairs Office, Tulsa District U.S. Army Corps of Engineers is strictly prohibited. These data are gathered electronically and, as presented, have NOT undergone any form of quality control. These data are NOT guaranteed to be valid or correct.